createdAt,value
2019-03-13T00:01:23.744Z,-1.86
2019-03-13T00:03:54.377Z,-1.86
2019-03-13T00:06:25.177Z,-1.86
2019-03-13T00:08:56.014Z,-1.84
2019-03-13T00:11:26.515Z,-1.74
2019-03-13T00:13:57.140Z,-1.70
2019-03-13T00:16:27.815Z,-1.76
2019-03-13T00:18:58.311Z,-1.77
2019-03-13T00:21:28.583Z,-1.75
2019-03-13T00:23:58.842Z,-1.80
2019-03-13T00:26:29.111Z,-1.72
2019-03-13T00:28:59.491Z,-1.64
2019-03-13T00:31:30.425Z,-1.68
2019-03-13T00:34:01.047Z,-1.79
2019-03-13T00:36:32.330Z,-1.63
2019-03-13T00:39:04.236Z,-1.64
2019-03-13T00:41:35.526Z,-1.64
2019-03-13T00:44:05.807Z,-1.67
2019-03-13T00:46:36.409Z,-1.74
2019-03-13T00:49:06.745Z,-1.58
2019-03-13T00:51:37.263Z,-1.65
2019-03-13T00:54:08.791Z,-1.67
2019-03-13T00:56:39.478Z,-1.77
2019-03-13T00:59:10.294Z,-1.69
2019-03-13T01:01:54.457Z,-1.60
2019-03-13T01:04:26.341Z,-1.70
2019-03-13T01:06:58.683Z,-1.72
2019-03-13T01:09:29.541Z,-1.70
2019-03-13T01:12:00.447Z,-1.78
2019-03-13T01:14:32.076Z,-1.68
2019-03-13T01:17:04.643Z,-1.77
2019-03-13T01:19:34.985Z,-1.65
2019-03-13T01:22:06.115Z,-1.70
2019-03-13T01:24:36.411Z,-1.60
2019-03-13T01:27:06.665Z,-1.64
2019-03-13T01:29:36.968Z,-1.61
2019-03-13T01:32:15.134Z,-1.52
2019-03-13T01:34:50.147Z,-1.55
2019-03-13T01:37:20.457Z,-1.64
2019-03-13T01:39:50.789Z,-1.63
2019-03-13T01:42:21.384Z,-1.61
2019-03-13T01:44:52.484Z,-1.62
2019-03-13T01:47:23.169Z,-1.60
2019-03-13T01:49:53.819Z,-1.56
2019-03-13T01:52:24.518Z,-1.60
2019-03-13T01:54:55.185Z,-1.58
2019-03-13T01:57:25.863Z,-1.67
2019-03-13T01:59:56.164Z,-1.67
2019-03-13T02:02:26.791Z,-1.68
2019-03-13T02:04:58.264Z,-1.67
2019-03-13T02:07:28.865Z,-1.70
2019-03-13T02:09:59.522Z,-1.66
2019-03-13T02:12:30.019Z,-1.56
2019-03-13T02:15:00.498Z,-1.58
2019-03-13T02:17:31.385Z,-1.61
2019-03-13T02:20:01.684Z,-1.52
2019-03-13T02:22:32.320Z,-1.51
2019-03-13T02:25:02.570Z,-1.52
2019-03-13T02:27:33.188Z,-1.51
2019-03-13T02:30:05.745Z,-1.33
2019-03-13T02:32:36.926Z,-1.40
2019-03-13T02:35:08.100Z,-1.41
2019-03-13T02:37:38.761Z,-1.45
2019-03-13T02:40:14.728Z,-1.31
2019-03-13T02:42:45.630Z,-1.32
2019-03-13T02:45:16.344Z,-1.41
2019-03-13T02:47:46.946Z,-1.51
2019-03-13T02:50:19.232Z,-1.60
2019-03-13T02:52:49.974Z,-1.59
2019-03-13T02:55:20.541Z,-1.56
2019-03-13T02:57:51.005Z,-1.52
2019-03-13T03:00:26.305Z,-1.51
2019-03-13T03:03:16.256Z,-1.44
2019-03-13T03:05:46.880Z,-1.49
2019-03-13T03:08:17.180Z,-1.50
2019-03-13T03:10:47.868Z,-1.43
2019-03-13T03:13:18.596Z,-1.35
2019-03-13T03:15:49.958Z,-1.46
2019-03-13T03:18:20.263Z,-1.41
2019-03-13T03:20:50.880Z,-1.49
2019-03-13T03:23:21.209Z,-1.48
2019-03-13T03:25:51.799Z,-1.43
2019-03-13T03:28:22.876Z,-1.34
2019-03-13T03:30:53.506Z,-1.38
2019-03-13T03:33:24.180Z,-1.32
2019-03-13T03:35:54.480Z,-1.27
2019-03-13T03:38:24.691Z,-1.30
2019-03-13T03:40:56.251Z,-1.16
2019-03-13T03:43:39.426Z,-1.07
2019-03-13T03:45:59.248Z,-0.87
2019-03-13T03:48:29.927Z,-0.78
2019-03-13T03:51:00.749Z,-0.73
2019-03-13T03:53:31.404Z,-0.71
2019-03-13T03:56:02.217Z,-0.58
2019-03-13T03:58:32.518Z,-0.53
2019-03-13T04:01:02.760Z,-0.44
2019-03-13T04:03:33.666Z,-0.30
2019-03-13T04:06:04.598Z,-0.28
2019-03-13T04:08:37.674Z,-0.35
2019-03-13T04:11:06.890Z,-0.37
2019-03-13T04:13:37.454Z,-0.37
2019-03-13T04:16:08.314Z,-0.27
2019-03-13T04:18:38.601Z,-0.19
2019-03-13T04:21:09.333Z,-0.14
2019-03-13T04:23:39.992Z,-0.13
2019-03-13T04:26:12.742Z,-0.01
2019-03-13T04:28:42.373Z,0.08
2019-03-13T04:31:13.010Z,0.15
2019-03-13T04:33:45.593Z,0.29
2019-03-13T04:36:16.285Z,0.39
2019-03-13T04:38:46.913Z,0.55
2019-03-13T04:41:17.198Z,0.65
2019-03-13T04:43:47.443Z,0.85
2019-03-13T04:46:17.706Z,0.89
2019-03-13T04:48:47.952Z,0.92
2019-03-13T04:51:18.166Z,1.05
2019-03-13T04:53:48.374Z,1.09
2019-03-13T04:56:18.591Z,1.14
2019-03-13T04:58:48.801Z,1.14
2019-03-13T05:01:19.393Z,1.29
2019-03-13T05:03:49.672Z,1.30
2019-03-13T05:06:22.156Z,1.29
2019-03-13T05:08:55.098Z,1.39
2019-03-13T05:11:25.574Z,1.49
2019-03-13T05:13:56.172Z,1.44
2019-03-13T05:16:26.823Z,1.54
2019-03-13T05:18:57.641Z,1.50
2019-03-13T05:21:27.988Z,1.56
2019-03-13T05:23:58.327Z,1.62
2019-03-13T05:26:28.533Z,1.70
2019-03-13T05:28:58.764Z,1.78
2019-03-13T05:31:29.561Z,1.88
2019-03-13T05:33:59.775Z,2.00
2019-03-13T05:36:30.006Z,2.15
2019-03-13T05:39:00.652Z,2.18
2019-03-13T05:41:33.024Z,2.22
2019-03-13T05:44:03.658Z,2.34
2019-03-13T05:46:33.988Z,2.31
2019-03-13T05:49:04.600Z,2.38
2019-03-13T05:51:35.243Z,2.37
2019-03-13T05:54:05.563Z,2.43
2019-03-13T05:56:36.942Z,2.43
2019-03-13T05:59:07.213Z,2.57
2019-03-13T06:01:37.763Z,2.65
2019-03-13T06:04:08.057Z,2.69
2019-03-13T06:06:38.287Z,2.91
2019-03-13T06:09:08.501Z,3.13
2019-03-13T06:11:38.711Z,3.42
2019-03-13T06:14:08.943Z,3.63
2019-03-13T06:16:39.155Z,3.82
2019-03-13T06:19:09.386Z,3.85
2019-03-13T06:21:40.718Z,3.82
2019-03-13T06:24:11.294Z,3.79
2019-03-13T06:26:41.748Z,3.65
2019-03-13T06:29:12.313Z,3.54
2019-03-13T06:31:48.849Z,3.45
2019-03-13T06:34:19.149Z,3.44
2019-03-13T06:36:49.387Z,3.46
2019-03-13T06:39:20.141Z,3.45
2019-03-13T06:41:50.842Z,3.58
2019-03-13T06:44:21.472Z,3.63
2019-03-13T06:46:52.134Z,3.63
2019-03-13T06:49:22.759Z,3.70
2019-03-13T06:51:53.069Z,3.67
2019-03-13T06:54:23.287Z,3.73
2019-03-13T06:56:53.530Z,3.82
2019-03-13T06:59:25.381Z,3.98
2019-03-13T07:01:57.254Z,4.19
2019-03-13T07:04:32.161Z,4.41
2019-03-13T07:07:13.555Z,4.64
2019-03-13T07:09:48.483Z,5.01
2019-03-13T07:12:23.506Z,5.45
2019-03-13T07:15:13.767Z,5.99
2019-03-13T07:17:52.045Z,6.80
2019-03-13T07:20:32.694Z,7.49
2019-03-13T07:23:21.201Z,7.57
2019-03-13T07:25:56.316Z,7.55
2019-03-13T07:28:34.074Z,7.30
2019-03-13T07:31:11.943Z,6.91
2019-03-13T07:33:44.086Z,6.71
2019-03-13T07:36:19.060Z,6.47
2019-03-13T07:38:57.070Z,6.28
2019-03-13T07:41:29.299Z,6.18
2019-03-13T07:44:17.373Z,6.13
2019-03-13T07:46:55.598Z,6.04
2019-03-13T07:49:39.302Z,5.94
2019-03-13T07:52:17.133Z,5.83
2019-03-13T07:54:57.910Z,5.63
2019-03-13T07:57:32.509Z,5.56
2019-03-13T08:00:23.459Z,5.60
2019-03-13T08:02:56.087Z,5.74
2019-03-13T08:05:28.046Z,5.91
2019-03-13T08:08:00.326Z,6.17
2019-03-13T08:10:48.377Z,6.50
2019-03-13T08:13:32.384Z,6.78
2019-03-13T08:16:04.397Z,6.90
2019-03-13T08:18:39.531Z,6.93
2019-03-13T08:21:28.262Z,6.94
2019-03-13T08:24:16.379Z,6.89
2019-03-13T08:27:04.089Z,6.95
2019-03-13T08:29:40.184Z,6.95
2019-03-13T08:32:12.129Z,6.98
2019-03-13T08:34:47.282Z,6.93
2019-03-13T08:37:37.524Z,6.91
2019-03-13T08:40:26.560Z,6.89
2019-03-13T08:42:56.916Z,6.95
2019-03-13T08:45:35.571Z,7.05
2019-03-13T08:48:08.296Z,7.06
2019-03-13T08:50:40.887Z,7.16
2019-03-13T08:53:17.445Z,7.22
2019-03-13T08:56:04.060Z,7.27
2019-03-13T08:58:48.014Z,7.18
2019-03-13T09:01:20.328Z,7.22
2019-03-13T09:03:55.467Z,7.43
2019-03-13T09:06:33.231Z,7.70
2019-03-13T09:09:09.016Z,7.82
2019-03-13T09:11:41.488Z,7.84
2019-03-13T09:14:30.158Z,7.97
2019-03-13T09:17:20.473Z,7.89
2019-03-13T09:19:50.795Z,8.12
2019-03-13T09:22:39.118Z,8.56
2019-03-13T09:25:29.079Z,8.96
2019-03-13T09:28:17.690Z,8.96
2019-03-13T09:30:49.919Z,8.81
2019-03-13T09:33:27.510Z,8.87
2019-03-13T09:36:05.412Z,8.86
2019-03-13T09:38:43.233Z,8.91
2019-03-13T09:41:17.765Z,9.05
2019-03-13T09:44:05.754Z,9.08
2019-03-13T09:46:40.034Z,8.85
2019-03-13T09:49:24.359Z,8.49
2019-03-13T09:52:15.682Z,8.33
2019-03-13T09:54:47.652Z,8.03
2019-03-13T09:57:19.505Z,7.99
2019-03-13T09:59:51.428Z,7.92
2019-03-13T10:02:27.167Z,8.02
2019-03-13T10:05:08.241Z,8.10
2019-03-13T10:07:43.046Z,8.29
2019-03-13T10:10:25.742Z,8.48
2019-03-13T10:13:14.304Z,8.90
2019-03-13T10:15:57.893Z,9.25
2019-03-13T10:18:34.275Z,9.48
2019-03-13T10:21:12.599Z,9.63
2019-03-13T10:23:47.455Z,9.84
2019-03-13T10:26:19.322Z,9.73
2019-03-13T10:28:58.809Z,9.48
2019-03-13T10:31:31.067Z,9.33
2019-03-13T10:34:19.248Z,9.02
2019-03-13T10:37:06.995Z,8.80
2019-03-13T10:39:43.419Z,8.64
2019-03-13T10:42:15.373Z,8.59
2019-03-13T10:44:47.224Z,8.42
2019-03-13T10:47:43.475Z,8.18
2019-03-13T10:50:18.957Z,8.01
2019-03-13T10:52:58.339Z,7.89
2019-03-13T10:55:39.455Z,7.79
2019-03-13T10:58:14.362Z,7.71
2019-03-13T11:00:52.063Z,7.48
2019-03-13T11:03:22.416Z,7.21
2019-03-13T11:06:03.906Z,6.93
2019-03-13T11:08:37.701Z,6.70
2019-03-13T11:11:19.087Z,6.48
2019-03-13T11:13:55.627Z,6.32
2019-03-13T11:16:47.348Z,6.14
2019-03-13T11:19:22.142Z,6.08
2019-03-13T11:21:59.486Z,6.08
2019-03-13T11:24:33.983Z,6.12
2019-03-13T11:27:06.564Z,6.13
2019-03-13T11:29:38.501Z,6.02
2019-03-13T11:32:13.191Z,6.04
2019-03-13T11:35:01.222Z,6.02
2019-03-13T11:37:45.601Z,5.96
2019-03-13T11:40:17.466Z,5.99
2019-03-13T11:42:53.754Z,5.95
2019-03-13T11:45:27.230Z,5.93
2019-03-13T11:48:15.174Z,5.96
2019-03-13T11:51:04.234Z,5.95
2019-03-13T11:53:36.080Z,5.96
2019-03-13T11:56:13.623Z,5.98
2019-03-13T11:58:46.989Z,5.88
2019-03-13T12:01:18.833Z,5.88
2019-03-13T12:03:51.576Z,5.91
2019-03-13T12:06:41.946Z,5.93
2019-03-13T12:09:28.200Z,5.97
2019-03-13T12:12:12.423Z,6.00
2019-03-13T12:14:44.898Z,6.04
2019-03-13T12:17:26.407Z,6.04
2019-03-13T12:20:01.631Z,6.10
2019-03-13T12:22:37.985Z,6.12
2019-03-13T12:25:19.719Z,6.10
2019-03-13T12:27:52.005Z,6.10
2019-03-13T12:30:30.018Z,6.01
2019-03-13T12:33:20.022Z,5.93
2019-03-13T12:35:57.720Z,5.93
2019-03-13T12:38:30.282Z,5.90
2019-03-13T12:41:20.322Z,5.88
2019-03-13T12:43:55.293Z,5.92
2019-03-13T12:46:31.750Z,5.94
2019-03-13T12:49:06.557Z,5.89
2019-03-13T12:51:47.098Z,5.87
2019-03-13T12:54:28.077Z,5.92
2019-03-13T12:57:16.323Z,5.99
2019-03-13T12:59:54.334Z,5.96
2019-03-13T13:02:26.668Z,5.99
2019-03-13T13:05:08.069Z,6.01
2019-03-13T13:07:51.894Z,5.98
2019-03-13T13:10:24.272Z,5.99
2019-03-13T13:12:56.159Z,5.99
2019-03-13T13:15:28.002Z,5.99
2019-03-13T13:18:00.221Z,5.98
2019-03-13T13:20:30.524Z,6.05
2019-03-13T13:23:01.933Z,6.20
2019-03-13T13:25:32.552Z,6.40
2019-03-13T13:28:03.253Z,6.68
2019-03-13T13:30:33.621Z,7.17
2019-03-13T13:33:04.198Z,7.59
2019-03-13T13:35:35.170Z,7.89
2019-03-13T13:38:05.873Z,8.10
2019-03-13T13:40:36.506Z,8.39
2019-03-13T13:43:07.326Z,8.57
2019-03-13T13:45:40.075Z,8.79
2019-03-13T13:48:11.429Z,8.95
2019-03-13T13:50:43.262Z,9.12
2019-03-13T13:53:13.803Z,9.21
2019-03-13T13:55:44.477Z,9.25
2019-03-13T13:58:14.803Z,9.29
2019-03-13T14:00:45.148Z,9.34
2019-03-13T14:03:15.357Z,9.28
2019-03-13T14:05:45.630Z,9.27
2019-03-13T14:08:15.849Z,9.28
2019-03-13T14:10:46.414Z,9.35
2019-03-13T14:13:17.081Z,9.65
2019-03-13T14:15:47.331Z,9.73
2019-03-13T14:18:17.904Z,9.59
2019-03-13T14:20:48.203Z,9.43
2019-03-13T14:23:18.415Z,9.14
2019-03-13T14:25:51.372Z,8.86
2019-03-13T14:28:22.749Z,8.68
2019-03-13T14:30:53.834Z,8.75
2019-03-13T14:33:24.118Z,8.78
2019-03-13T14:35:58.579Z,8.76
2019-03-13T14:38:28.362Z,8.68
2019-03-13T14:40:58.598Z,8.61
2019-03-13T14:43:29.872Z,8.58
2019-03-13T14:46:00.213Z,8.66
2019-03-13T14:48:32.418Z,8.72
2019-03-13T14:51:02.870Z,8.74
2019-03-13T14:53:33.311Z,8.75
2019-03-13T14:56:04.955Z,8.76
2019-03-13T14:58:35.866Z,8.79
2019-03-13T15:01:06.156Z,8.86
2019-03-13T15:03:37.476Z,8.92
2019-03-13T15:06:08.099Z,9.02
2019-03-13T15:08:38.874Z,9.13
2019-03-13T15:11:09.158Z,9.20
2019-03-13T15:13:41.380Z,9.31
2019-03-13T15:16:12.380Z,9.14
2019-03-13T15:18:43.124Z,8.99
2019-03-13T15:21:15.695Z,8.79
2019-03-13T15:23:46.379Z,8.56
2019-03-13T15:26:21.883Z,8.37
2019-03-13T15:28:52.457Z,8.15
2019-03-13T15:31:24.388Z,7.99
2019-03-13T15:33:54.960Z,7.87
2019-03-13T15:36:25.228Z,7.71
2019-03-13T15:38:55.450Z,7.54
2019-03-13T15:41:26.095Z,7.44
2019-03-13T15:43:56.500Z,7.26
2019-03-13T15:46:27.088Z,7.10
2019-03-13T15:48:57.713Z,7.03
2019-03-13T15:51:28.054Z,6.99
2019-03-13T15:53:58.261Z,7.03
2019-03-13T15:56:28.560Z,7.08
2019-03-13T15:58:59.108Z,7.17
2019-03-13T16:01:31.615Z,7.21
2019-03-13T16:04:01.948Z,7.15
2019-03-13T16:06:32.508Z,7.00
2019-03-13T16:09:03.140Z,6.79
2019-03-13T16:11:35.060Z,6.59
2019-03-13T16:14:05.608Z,6.40
2019-03-13T16:16:36.919Z,6.21
2019-03-13T16:19:08.140Z,6.04
2019-03-13T16:21:38.363Z,5.91
2019-03-13T16:24:08.620Z,5.78
2019-03-13T16:26:39.181Z,5.67
2019-03-13T16:29:11.465Z,5.52
2019-03-13T16:31:42.233Z,5.38
2019-03-13T16:34:12.491Z,5.27
2019-03-13T16:36:42.876Z,5.21
2019-03-13T16:39:17.416Z,5.12
2019-03-13T16:41:47.783Z,4.99
2019-03-13T16:44:18.037Z,4.95
2019-03-13T16:46:49.695Z,4.84
2019-03-13T16:49:20.467Z,4.72
2019-03-13T16:51:50.748Z,4.61
2019-03-13T16:54:21.323Z,4.54
2019-03-13T16:56:51.602Z,4.51
2019-03-13T16:59:21.841Z,4.48
2019-03-13T17:01:52.052Z,4.47
2019-03-13T17:04:22.287Z,4.43
2019-03-13T17:06:52.496Z,4.43
2019-03-13T17:09:22.713Z,4.47
2019-03-13T17:11:52.941Z,4.47
2019-03-13T17:14:23.494Z,4.47
2019-03-13T17:16:54.128Z,4.46
2019-03-13T17:19:24.478Z,4.53
2019-03-13T17:21:54.717Z,4.59
2019-03-13T17:24:24.947Z,4.66
2019-03-13T17:26:55.238Z,4.72
2019-03-13T17:29:25.547Z,4.78
2019-03-13T17:31:56.122Z,4.83
2019-03-13T17:34:26.703Z,4.80
2019-03-13T17:36:57.333Z,4.78
2019-03-13T17:39:27.661Z,4.78
2019-03-13T17:41:58.297Z,4.74
2019-03-13T17:44:28.597Z,4.79
2019-03-13T17:46:58.831Z,4.83
2019-03-13T17:49:29.164Z,4.85
2019-03-13T17:51:59.471Z,4.87
2019-03-13T17:54:30.028Z,4.86
2019-03-13T17:57:00.308Z,4.78
2019-03-13T17:59:30.829Z,4.77
2019-03-13T18:02:01.039Z,4.83
2019-03-13T18:04:32.934Z,4.88
2019-03-13T18:07:03.216Z,4.98
2019-03-13T18:09:33.836Z,5.03
2019-03-13T18:12:04.241Z,5.09
2019-03-13T18:14:34.467Z,5.16
2019-03-13T18:17:10.935Z,5.17
2019-03-13T18:19:42.798Z,5.23
2019-03-13T18:22:13.861Z,5.21
2019-03-13T18:24:44.296Z,5.23
2019-03-13T18:27:14.857Z,5.29
2019-03-13T18:29:45.127Z,5.26
2019-03-13T18:32:15.926Z,5.25
2019-03-13T18:34:46.567Z,5.22
2019-03-13T18:37:16.946Z,5.30
2019-03-13T18:39:47.501Z,5.25
2019-03-13T18:42:18.182Z,5.24
2019-03-13T18:44:50.090Z,5.10
2019-03-13T18:47:20.319Z,4.92
2019-03-13T18:49:50.558Z,4.86
2019-03-13T18:52:21.195Z,4.62
2019-03-13T18:54:51.900Z,4.53
2019-03-13T18:57:22.691Z,4.33
2019-03-13T18:59:53.480Z,4.15
2019-03-13T19:02:23.794Z,4.05
2019-03-13T19:04:57.646Z,3.91
2019-03-13T19:07:27.514Z,3.86
2019-03-13T19:09:59.817Z,3.84
2019-03-13T19:12:30.445Z,3.81
2019-03-13T19:15:00.757Z,3.77
2019-03-13T19:17:31.717Z,3.66
2019-03-13T19:20:01.994Z,3.61
2019-03-13T19:22:32.579Z,3.61
2019-03-13T19:25:03.033Z,3.53
2019-03-13T19:27:33.252Z,3.53
2019-03-13T19:30:04.859Z,3.39
2019-03-13T19:32:35.072Z,3.47
2019-03-13T19:35:06.745Z,3.42
2019-03-13T19:37:37.305Z,3.32
2019-03-13T19:40:14.694Z,3.34
2019-03-13T19:42:45.341Z,3.31
2019-03-13T19:45:30.411Z,3.30
2019-03-13T19:48:01.741Z,3.26
2019-03-13T19:50:32.285Z,3.24
2019-03-13T19:53:02.523Z,3.16
2019-03-13T19:55:33.300Z,3.14
2019-03-13T19:58:03.614Z,3.13
2019-03-13T20:00:33.916Z,3.10
2019-03-13T20:03:17.453Z,3.07
2019-03-13T20:05:48.094Z,3.06
2019-03-13T20:08:19.482Z,3.04
2019-03-13T20:10:49.750Z,3.05
2019-03-13T20:13:20.054Z,3.06
2019-03-13T20:15:50.475Z,3.08
2019-03-13T20:18:20.946Z,3.04
2019-03-13T20:20:52.977Z,3.00
2019-03-13T20:23:23.259Z,2.96
2019-03-13T20:25:53.561Z,2.96
2019-03-13T20:28:24.252Z,2.98
2019-03-13T20:30:55.850Z,2.96
2019-03-13T20:33:27.042Z,2.87
2019-03-13T20:35:58.123Z,2.85
2019-03-13T20:38:28.333Z,2.81
2019-03-13T20:40:58.738Z,2.76
2019-03-13T20:43:29.024Z,2.65
2019-03-13T20:45:59.597Z,2.71
2019-03-13T20:48:30.318Z,2.65
2019-03-13T20:51:00.612Z,2.56
2019-03-13T20:53:30.842Z,2.55
2019-03-13T20:56:01.408Z,2.61
2019-03-13T20:58:32.140Z,2.47
2019-03-13T21:01:04.399Z,2.42
2019-03-13T21:03:35.507Z,2.43
2019-03-13T21:06:05.900Z,2.37
2019-03-13T21:08:38.083Z,2.30
2019-03-13T21:11:09.061Z,2.27
2019-03-13T21:13:39.407Z,2.19
2019-03-13T21:16:09.916Z,2.20
2019-03-13T21:18:41.897Z,2.12
2019-03-13T21:21:12.148Z,2.23
2019-03-13T21:23:42.875Z,2.11
2019-03-13T21:26:13.541Z,2.06
2019-03-13T21:28:43.887Z,2.01
2019-03-13T21:31:13.938Z,2.03
2019-03-13T21:33:44.235Z,1.99
2019-03-13T21:36:14.799Z,1.97
2019-03-13T21:38:45.453Z,1.96
2019-03-13T21:41:16.109Z,1.89
2019-03-13T21:43:46.402Z,1.88
2019-03-13T21:46:16.994Z,1.92
2019-03-13T21:48:47.267Z,1.85
2019-03-13T21:51:17.530Z,1.79
2019-03-13T21:53:47.812Z,1.78
2019-03-13T21:56:18.095Z,1.76
2019-03-13T21:58:48.336Z,1.86
2019-03-13T22:01:20.026Z,1.83
2019-03-13T22:03:50.900Z,1.79
2019-03-13T22:06:28.691Z,1.76
2019-03-13T22:08:54.366Z,1.77
2019-03-13T22:11:24.604Z,1.88
2019-03-13T22:13:55.166Z,1.94
2019-03-13T22:16:25.543Z,1.95
2019-03-13T22:18:56.108Z,1.95
2019-03-13T22:21:26.464Z,1.93
2019-03-13T22:23:56.627Z,1.85
2019-03-13T22:26:27.238Z,1.80
2019-03-13T22:28:57.533Z,1.79
2019-03-13T22:31:27.757Z,1.79
2019-03-13T22:33:57.967Z,1.72
2019-03-13T22:36:28.174Z,1.69
2019-03-13T22:38:58.407Z,1.68
2019-03-13T22:41:28.619Z,1.65
2019-03-13T22:43:59.234Z,1.74
2019-03-13T22:46:29.531Z,1.62
2019-03-13T22:48:59.743Z,1.63
2019-03-13T22:51:30.196Z,1.61
2019-03-13T22:54:00.745Z,1.57
2019-03-13T22:56:31.057Z,1.58
2019-03-13T22:59:01.614Z,1.63
2019-03-13T23:01:32.413Z,1.59
2019-03-13T23:04:03.225Z,1.58
2019-03-13T23:06:33.530Z,1.57
2019-03-13T23:09:05.051Z,1.47
2019-03-13T23:11:36.407Z,1.43
2019-03-13T23:14:07.033Z,1.35
2019-03-13T23:16:37.764Z,1.33
2019-03-13T23:19:08.379Z,1.30
2019-03-13T23:21:38.689Z,1.30
2019-03-13T23:24:08.970Z,1.26
2019-03-13T23:26:39.204Z,1.20
2019-03-13T23:29:09.833Z,1.11
2019-03-13T23:31:40.145Z,1.11
2019-03-13T23:34:10.715Z,1.13
2019-03-13T23:36:41.380Z,1.05
2019-03-13T23:39:12.501Z,0.97
2019-03-13T23:41:43.164Z,0.94
2019-03-13T23:44:15.120Z,0.85
2019-03-13T23:46:45.394Z,0.84
2019-03-13T23:49:15.958Z,0.82
2019-03-13T23:51:46.232Z,0.80
2019-03-13T23:54:16.467Z,0.73
2019-03-13T23:56:46.846Z,0.66
2019-03-13T23:59:17.111Z,0.61
